ZLXY METAR and TAF | Updated Today

ZLXY METAR

Xi'an Xianyang International Airport

Observation time: 23 min. ago

ZLXY 032200Z 00000MPS 7000 NSC M05/M07 Q1027 NOSIG

Need help? Read our tutorial on how to read METARs or read the parsed version below.

Xi'an Xianyang International Airport (ZLXY) METAR

  • Weather conditions on Fri, 03 Dec 2021 22:00:00 +0000 (23 min. ago):
  • Present conditions: Dry
  • Clouds: No significant clouds are observed
  • Visibility: 7000 meters
  • Wind: Calm
  • Temperature: -5 celsius
  • Dew point: -7 celsius
  • Pressure: 1027 millibars
  • Remarks: None


Useful to know...

ZLXY TAF

Xi'an Xianyang International Airport

TAF ZLXY 031503Z 0318/0418 30003MPS 3000 HZ NSC TX12/0408Z TNM05/0322Z
Observation time: 7:20 hr. ago
Need help? Read our tutorial on how to read TAFs or read the parsed version below.

Parsed version of TAF for Xi'an Xianyang International Airport (ZLXY)

  • From 03 December at 18:00 UTC, to day 04 of the month at 18:00 UTC
  • Clouds: No significant clouds are observed
  • Visibility: 3000 meters
  • Wind: 300 degrees at 3
  • Other: Haze